Time;durP1;ratioP1;P1;durP2;ratioP2;P2;SDS_P1;SDS_P2;PMS_P1;PMS_P2;Temp;Humidity;BMP_temperature;BMP_pressure;BME280_temperature;BME280_humidity;BME280_pressure;Samples;Min_cycle;Max_cycle;Signal;HPM_P1;HPM_P2
2022/12/03 00:02:22;;;;;;;7.43;4.75;;;19.30;55.00;;;;;;4940912;28;20499;-66
2022/12/03 00:04:47;;;;;;;6.88;4.18;;;19.30;55.00;;;;;;4944665;28;20035;-67
2022/12/03 00:07:14;;;;;;;7.03;4.30;;;19.30;55.00;;;;;;4940272;28;20043;-64
2022/12/03 00:09:39;;;;;;;7.28;4.63;;;19.30;55.20;;;;;;4928639;28;20047;-67
2022/12/03 00:12:05;;;;;;;6.72;4.35;;;19.30;55.10;;;;;;4943812;28;20102;-71
2022/12/03 00:14:30;;;;;;;6.68;4.28;;;19.30;55.00;;;;;;4947680;28;20142;-71
2022/12/03 00:16:56;;;;;;;7.50;4.50;;;19.30;55.00;;;;;;4946990;28;20031;-65
2022/12/03 00:19:21;;;;;;;6.70;4.60;;;19.30;55.10;;;;;;4944902;28;20086;-72
2022/12/03 00:21:47;;;;;;;9.00;4.88;;;19.20;55.00;;;;;;4943240;28;20074;-64
2022/12/03 00:24:13;;;;;;;6.85;4.57;;;19.20;55.00;;;;;;4948518;28;20043;-66
2022/12/03 00:26:38;;;;;;;5.13;4.18;;;19.30;55.00;;;;;;4947529;28;20067;-64
2022/12/03 00:29:04;;;;;;;6.05;4.22;;;19.20;55.50;;;;;;4937721;28;20150;-69
2022/12/03 00:31:29;;;;;;;7.22;4.35;;;19.20;55.00;;;;;;4944357;28;20040;-67
2022/12/03 00:33:55;;;;;;;7.00;4.43;;;19.20;55.10;;;;;;4926851;29;20051;-71
2022/12/03 00:36:21;;;;;;;6.28;4.38;;;19.20;55.00;;;;;;4945743;28;20460;-65
2022/12/03 00:38:46;;;;;;;6.10;4.45;;;19.20;55.00;;;;;;4944862;28;20035;-68
2022/12/03 00:41:12;;;;;;;6.50;4.40;;;19.20;55.00;;;;;;4929475;29;20039;-69
2022/12/03 00:43:37;;;;;;;6.70;4.80;;;19.20;55.10;;;;;;4947690;28;20050;-68
2022/12/03 00:46:03;;;;;;;5.32;3.70;;;19.20;55.00;;;;;;4949656;28;20131;-65
2022/12/03 00:48:29;;;;;;;6.20;4.25;;;19.20;55.00;;;;;;4929443;28;20077;-63
2022/12/03 00:50:54;;;;;;;5.90;3.97;;;19.30;55.00;;;;;;4939067;28;20039;-67
2022/12/03 00:53:20;;;;;;;7.15;4.30;;;19.20;55.00;;;;;;4941084;28;20051;-67
2022/12/03 00:55:46;;;;;;;7.28;4.65;;;19.20;55.00;;;;;;4942860;28;20043;-67
2022/12/03 00:58:11;;;;;;;7.25;4.20;;;19.20;55.00;;;;;;4941621;28;20042;-70
2022/12/03 01:00:37;;;;;;;6.30;4.50;;;19.20;55.10;;;;;;4947110;28;20031;-67
2022/12/03 01:03:03;;;;;;;5.35;3.78;;;19.20;55.10;;;;;;4943227;28;20039;-68
2022/12/03 01:05:29;;;;;;;6.82;4.18;;;19.20;55.20;;;;;;4949664;28;20080;-62
2022/12/03 01:07:54;;;;;;;6.07;4.65;;;19.20;55.20;;;;;;4936039;28;20533;-64
2022/12/03 01:10:20;;;;;;;5.50;3.90;;;19.20;56.00;;;;;;4943938;28;20380;-64
2022/12/03 01:12:45;;;;;;;5.68;4.05;;;19.20;55.30;;;;;;4936877;28;20135;-63
2022/12/03 01:15:11;;;;;;;6.00;4.15;;;19.30;55.30;;;;;;4932990;28;20055;-63
2022/12/03 01:17:37;;;;;;;6.18;4.10;;;19.20;55.30;;;;;;4936948;28;20039;-62
2022/12/03 01:20:07;;;;;;;5.85;4.18;;;19.20;55.40;;;;;;4932342;28;20737;-63
2022/12/03 01:22:33;;;;;;;5.10;3.78;;;19.20;55.30;;;;;;4940489;28;20590;-62
2022/12/03 01:24:59;;;;;;;5.35;3.90;;;19.20;55.30;;;;;;4944378;28;20039;-67
2022/12/03 01:27:24;;;;;;;6.18;3.97;;;19.20;55.30;;;;;;4945151;28;21047;-64
2022/12/03 01:29:50;;;;;;;6.30;4.28;;;19.20;55.40;;;;;;4937005;28;20054;-67
2022/12/03 01:32:16;;;;;;;4.78;3.70;;;19.30;55.40;;;;;;4943628;28;20078;-63
2022/12/03 01:34:50;;;;;;;4.90;3.70;;;19.20;55.40;;;;;;4940717;28;20066;-66
2022/12/03 01:37:17;;;;;;;5.65;3.78;;;19.20;55.40;;;;;;4927134;28;20474;-63
2022/12/03 01:39:43;;;;;;;5.32;3.83;;;19.20;55.40;;;;;;4943310;28;20047;-64
2022/12/03 01:42:16;;;;;;;6.07;4.10;;;19.20;55.60;;;;;;4943134;28;20049;-63
2022/12/03 01:44:42;;;;;;;5.75;4.38;;;19.20;55.50;;;;;;4947522;28;20115;-65
2022/12/03 01:47:16;;;;;;;6.85;3.90;;;19.20;55.50;;;;;;4925528;29;20059;-68
2022/12/03 01:50:04;;;;;;;5.63;3.67;;;19.20;55.50;;;;;;4943912;28;20051;-65
2022/12/03 01:52:33;;;;;;;4.80;3.78;;;19.20;55.50;;;;;;4942305;28;20053;-63
2022/12/03 01:55:02;;;;;;;4.55;3.70;;;19.20;55.50;;;;;;4940288;28;20042;-63
2022/12/03 01:57:50;;;;;;;5.30;4.25;;;19.20;55.40;;;;;;4943635;28;20047;-63
2022/12/03 02:00:19;;;;;;;5.37;3.63;;;19.20;55.40;;;;;;4942233;28;20102;-69
2022/12/03 02:02:47;;;;;;;5.18;3.92;;;19.20;55.40;;;;;;4943142;28;20105;-63
2022/12/03 02:05:25;;;;;;;4.43;3.50;;;19.20;55.30;;;;;;4946871;28;20043;-64
2022/12/03 02:07:51;;;;;;;5.32;3.72;;;19.20;55.30;;;;;;4944759;28;20051;-67
2022/12/03 02:10:20;;;;;;;6.50;4.20;;;19.20;55.30;;;;;;4942472;28;20403;-65
2022/12/03 02:12:59;;;;;;;5.57;3.28;;;19.20;55.30;;;;;;4931785;28;20078;-71
2022/12/03 02:15:25;;;;;;;5.32;3.88;;;19.20;55.20;;;;;;4930917;29;20047;-65
2022/12/03 02:17:51;;;;;;;6.53;3.97;;;19.20;55.20;;;;;;4942769;28;20570;-68
2022/12/03 02:20:17;;;;;;;5.68;3.58;;;19.20;55.20;;;;;;4940165;28;20071;-64
2022/12/03 02:22:57;;;;;;;4.70;3.63;;;19.20;55.30;;;;;;4939739;28;20098;-68
2022/12/03 02:25:25;;;;;;;4.88;3.53;;;19.20;55.30;;;;;;4940215;28;20054;-67
2022/12/03 02:27:52;;;;;;;6.25;3.83;;;19.20;55.30;;;;;;4943779;28;20051;-64
2022/12/03 02:30:21;;;;;;;5.18;3.85;;;19.20;55.30;;;;;;4937098;28;20609;-67
2022/12/03 02:32:49;;;;;;;5.38;3.33;;;19.20;55.30;;;;;;4941159;28;20443;-65
2022/12/03 02:35:17;;;;;;;4.53;3.50;;;19.20;55.20;;;;;;4942415;28;20118;-68
2022/12/03 02:37:44;;;;;;;4.65;3.30;;;19.20;55.30;;;;;;4938800;28;20082;-66
2022/12/03 02:40:13;;;;;;;4.68;3.72;;;19.20;55.20;;;;;;4942060;28;20063;-64
2022/12/03 02:42:41;;;;;;;4.25;3.35;;;19.20;55.20;;;;;;4938724;28;20134;-65
2022/12/03 02:45:10;;;;;;;4.80;3.42;;;19.20;55.20;;;;;;4940885;28;20057;-67
2022/12/03 02:47:59;;;;;;;4.43;3.20;;;19.20;55.10;;;;;;4932813;28;20075;-65
2022/12/03 02:50:32;;;;;;;4.38;3.50;;;19.20;55.10;;;;;;4941082;28;20058;-69
2022/12/03 02:53:01;;;;;;;5.78;3.67;;;19.20;55.10;;;;;;4943359;28;20523;-63
2022/12/03 02:55:27;;;;;;;;;;;19.20;55.00;;;;;;4941647;28;20043;-66
2022/12/03 02:57:52;;;;;;;4.93;3.45;;;19.20;55.00;;;;;;4939308;28;19985;-63
2022/12/03 03:00:21;;;;;;;4.22;3.25;;;19.20;55.00;;;;;;4942487;28;20039;-64
2022/12/03 03:02:50;;;;;;;3.83;3.13;;;19.30;55.00;;;;;;4928314;28;20047;-63
2022/12/03 03:05:19;;;;;;;4.90;3.58;;;19.20;55.00;;;;;;4939551;28;20082;-64
2022/12/03 03:07:45;;;;;;;4.25;3.33;;;19.20;55.70;;;;;;4939091;28;20643;-62
2022/12/03 03:10:13;;;;;;;3.70;2.83;;;19.20;55.00;;;;;;4943700;28;20026;-65
2022/12/03 03:12:40;;;;;;;3.78;2.88;;;19.20;55.00;;;;;;4937568;28;20039;-65
2022/12/03 03:15:06;;;;;;;4.43;3.30;;;19.20;55.00;;;;;;4943945;28;20102;-64
2022/12/03 03:17:33;;;;;;;6.30;3.45;;;19.20;55.00;;;;;;4938192;28;20780;-64
2022/12/03 03:20:14;;;;;;;3.97;3.30;;;19.20;54.90;;;;;;4902316;28;20039;-64
2022/12/03 03:22:41;;;;;;;4.32;3.28;;;19.30;55.00;;;;;;4937550;28;21600;-63
2022/12/03 03:25:14;;;;;;;5.20;3.50;;;19.20;54.90;;;;;;4941599;28;20043;-64
2022/12/03 03:27:40;;;;;;;4.88;3.25;;;19.20;54.80;;;;;;4941131;28;22452;-64
2022/12/03 03:30:07;;;;;;;4.60;3.28;;;19.20;54.80;;;;;;4939721;28;20043;-65
2022/12/03 03:32:34;;;;;;;3.67;3.13;;;19.20;54.80;;;;;;4923656;28;20514;-62
2022/12/03 03:35:00;;;;;;;5.35;3.33;;;19.20;54.80;;;;;;4923136;28;20055;-67
2022/12/03 03:37:27;;;;;;;4.45;3.20;;;19.20;54.80;;;;;;4943509;28;20055;-63
2022/12/03 03:39:52;;;;;;;4.38;3.10;;;19.20;54.70;;;;;;4943189;28;20407;-65
2022/12/03 03:42:18;;;;;;;3.38;2.80;;;19.20;54.70;;;;;;4938225;28;20044;-65
2022/12/03 03:44:44;;;;;;;3.88;3.03;;;19.20;54.80;;;;;;4940789;28;20411;-65
2022/12/03 03:47:10;;;;;;;4.00;2.83;;;19.20;54.70;;;;;;4941981;28;20055;-68
2022/12/03 03:49:40;;;;;;;3.88;3.08;;;19.30;54.80;;;;;;4918515;29;20087;-64
2022/12/03 03:52:08;;;;;;;4.20;3.28;;;19.20;54.70;;;;;;4938412;28;20058;-64
2022/12/03 03:54:34;;;;;;;;;;;19.20;54.70;;;;;;4946804;28;20047;-67
2022/12/03 03:57:00;;;;;;;4.35;3.00;;;19.20;54.70;;;;;;4944649;28;20433;-63
2022/12/03 03:59:27;;;;;;;4.35;3.35;;;19.20;54.70;;;;;;4943964;28;20051;-64
2022/12/03 04:01:52;;;;;;;3.58;3.20;;;19.20;54.70;;;;;;4936439;28;20047;-68
2022/12/03 04:04:22;;;;;;;3.90;3.30;;;19.20;54.70;;;;;;4925691;28;20047;-65
2022/12/03 04:06:48;;;;;;;3.85;2.90;;;19.20;54.70;;;;;;4942537;28;20221;-67
2022/12/03 04:09:13;;;;;;;4.07;2.97;;;19.30;54.70;;;;;;4943379;28;20122;-64
2022/12/03 04:14:25;;;;;;;4.35;3.20;;;19.20;54.70;;;;;;4945417;28;20130;-65
2022/12/03 04:16:51;;;;;;;3.78;2.83;;;19.20;54.60;;;;;;4920096;28;20050;-66
2022/12/03 04:19:17;;;;;;;4.47;3.03;;;19.20;54.70;;;;;;4921163;28;20098;-66
2022/12/03 04:24:27;;;;;;;4.75;3.00;;;19.20;54.70;;;;;;4943835;28;20047;-67
2022/12/03 04:29:37;;;;;;;3.35;2.80;;;19.20;54.70;;;;;;4940617;28;20082;-67
2022/12/03 04:37:31;;;;;;;4.05;3.00;;;19.20;54.60;;;;;;4941212;28;20411;-64
2022/12/03 04:39:57;;;;;;;3.75;2.80;;;19.20;54.60;;;;;;4942763;28;20110;-65
2022/12/03 04:42:22;;;;;;;3.00;2.53;;;19.20;54.60;;;;;;4941812;28;20054;-64
2022/12/03 04:44:51;;;;;;;;;;;19.20;54.60;;;;;;4940374;28;20051;-65
2022/12/03 04:47:19;;;;;;;3.17;2.63;;;19.20;54.60;;;;;;4942176;28;19932;-68
2022/12/03 04:49:47;;;;;;;4.13;3.17;;;19.20;54.60;;;;;;4930999;28;20051;-63
2022/12/03 04:52:14;;;;;;;3.33;2.78;;;19.20;54.60;;;;;;4938502;28;20130;-70
2022/12/03 04:54:40;;;;;;;3.67;2.90;;;19.20;54.60;;;;;;4924572;28;20982;-69
2022/12/03 04:57:06;;;;;;;4.53;3.25;;;19.20;54.50;;;;;;4940923;28;20559;-62
2022/12/03 04:59:32;;;;;;;4.78;3.05;;;19.20;54.50;;;;;;4943525;28;20055;-64
2022/12/03 05:02:00;;;;;;;3.72;3.08;;;19.20;54.60;;;;;;4942708;28;20095;-67
2022/12/03 05:04:26;;;;;;;3.28;2.63;;;19.20;54.50;;;;;;4939571;28;20047;-67
2022/12/03 05:06:52;;;;;;;3.53;2.83;;;19.20;54.60;;;;;;4941421;28;20094;-62
2022/12/03 05:09:17;;;;;;;3.72;2.80;;;19.20;54.50;;;;;;4942645;28;20035;-65
2022/12/03 05:11:43;;;;;;;3.67;2.90;;;19.20;54.50;;;;;;4912257;28;20129;-67
2022/12/03 05:14:09;;;;;;;4.25;3.08;;;19.20;54.60;;;;;;4944185;28;20546;-64
2022/12/03 05:16:35;;;;;;;3.13;2.45;;;19.20;54.50;;;;;;4925998;28;20067;-64
2022/12/03 05:19:02;;;;;;;3.63;3.13;;;19.20;54.50;;;;;;4942105;28;20031;-65
2022/12/03 05:21:28;;;;;;;3.22;2.50;;;19.20;54.50;;;;;;4935301;28;20144;-68
2022/12/03 05:23:54;;;;;;;3.58;2.72;;;19.20;54.50;;;;;;4912778;29;20159;-68
2022/12/03 05:26:19;;;;;;;3.67;2.75;;;19.20;54.50;;;;;;4942931;28;20044;-64
2022/12/03 05:28:45;;;;;;;3.97;2.80;;;19.20;54.50;;;;;;4940477;28;20399;-68
2022/12/03 05:31:10;;;;;;;3.40;2.70;;;19.20;54.60;;;;;;4938139;28;20192;-64
2022/12/03 05:33:36;;;;;;;3.13;2.58;;;19.20;54.50;;;;;;4947188;28;20086;-66
2022/12/03 05:36:01;;;;;;;3.42;2.78;;;19.20;54.40;;;;;;4943142;28;20039;-69
2022/12/03 05:38:27;;;;;;;3.60;2.50;;;19.20;54.40;;;;;;4940787;28;20530;-65
2022/12/03 05:40:52;;;;;;;3.33;2.63;;;19.20;54.40;;;;;;4941339;28;20074;-65
2022/12/03 05:43:18;;;;;;;3.85;2.90;;;19.20;54.40;;;;;;4939002;28;20043;-69
2022/12/03 05:45:44;;;;;;;3.90;3.00;;;19.20;54.50;;;;;;4943330;28;20045;-63
2022/12/03 05:48:12;;;;;;;3.25;2.53;;;19.20;54.40;;;;;;4933646;28;20126;-69
2022/12/03 05:50:39;;;;;;;3.60;2.60;;;19.20;54.40;;;;;;4945345;28;20484;-66
2022/12/03 05:53:05;;;;;;;3.55;2.78;;;19.20;54.40;;;;;;4946163;28;20054;-65
2022/12/03 05:55:31;;;;;;;4.25;2.80;;;19.20;54.40;;;;;;4943947;28;20791;-65
2022/12/03 05:57:57;;;;;;;3.53;2.80;;;19.20;54.40;;;;;;4943168;28;20043;-64
2022/12/03 06:00:25;;;;;;;3.17;2.60;;;19.20;54.40;;;;;;4940714;28;20708;-67
2022/12/03 06:02:51;;;;;;;3.90;3.00;;;19.10;54.30;;;;;;4939127;28;20407;-63
2022/12/03 06:05:20;;;;;;;3.83;2.88;;;19.30;54.40;;;;;;4945040;28;20551;-67
2022/12/03 06:07:47;;;;;;;4.53;2.55;;;19.20;54.30;;;;;;4922615;28;20678;-68
2022/12/03 06:10:18;;;;;;;3.60;2.38;;;19.20;54.30;;;;;;4938580;28;20047;-67
2022/12/03 06:12:44;;;;;;;3.97;2.83;;;19.20;54.30;;;;;;4942815;28;20122;-69
2022/12/03 06:15:11;;;;;;;3.17;2.33;;;19.20;54.20;;;;;;4924702;28;21730;-63
2022/12/03 06:17:36;;;;;;;3.53;2.60;;;19.30;54.20;;;;;;4942185;28;20039;-63
2022/12/03 06:20:03;;;;;;;2.72;2.20;;;19.30;54.20;;;;;;4906270;28;20597;-62
2022/12/03 06:22:28;;;;;;;3.17;2.70;;;19.20;54.20;;;;;;4925839;28;20577;-65
2022/12/03 06:24:57;;;;;;;;;;;19.20;54.90;;;;;;4944950;28;20051;-69
2022/12/03 06:27:22;;;;;;;3.78;2.58;;;19.30;54.20;;;;;;4945528;28;19945;-64
2022/12/03 06:29:48;;;;;;;4.03;2.83;;;19.30;54.20;;;;;;4940832;28;20135;-65
2022/12/03 06:32:13;;;;;;;3.35;2.47;;;19.30;54.20;;;;;;4938270;28;20039;-67
2022/12/03 06:34:39;;;;;;;2.95;2.60;;;19.20;54.10;;;;;;4940228;28;20039;-69
2022/12/03 06:37:04;;;;;;;3.25;2.78;;;19.20;54.20;;;;;;4924526;29;20736;-67
2022/12/03 06:39:30;;;;;;;16.90;2.65;;;19.20;54.20;;;;;;4937650;28;20047;-65
2022/12/03 06:41:56;;;;;;;3.47;2.78;;;19.20;54.30;;;;;;4939962;28;20083;-71
2022/12/03 06:44:21;;;;;;;5.82;2.78;;;19.20;54.30;;;;;;4919990;28;20197;-64
2022/12/03 06:46:47;;;;;;;2.80;2.42;;;19.20;54.30;;;;;;4940521;28;20509;-63
2022/12/03 06:49:12;;;;;;;2.97;2.28;;;19.30;54.50;;;;;;4914546;28;20058;-64
2022/12/03 06:51:38;;;;;;;2.90;2.60;;;19.20;54.50;;;;;;4941034;28;20058;-65
2022/12/03 06:54:04;;;;;;;4.28;2.72;;;19.30;54.60;;;;;;4938629;28;20036;-69
2022/12/03 06:56:30;;;;;;;3.80;2.60;;;19.30;54.60;;;;;;4938125;28;20064;-66
2022/12/03 06:58:56;;;;;;;3.10;2.70;;;19.30;54.60;;;;;;4938045;28;20168;-65
2022/12/03 07:01:22;;;;;;;4.10;3.15;;;19.30;54.60;;;;;;4938291;28;20052;-64
2022/12/03 07:03:47;;;;;;;4.60;3.00;;;19.30;54.50;;;;;;4939060;28;20063;-62
2022/12/03 07:06:13;;;;;;;4.43;3.20;;;19.30;54.60;;;;;;4925062;28;20031;-65
2022/12/03 07:08:40;;;;;;;4.90;2.80;;;19.30;54.50;;;;;;4939402;28;20048;-67
2022/12/03 07:11:29;;;;;;;3.40;2.67;;;19.30;54.60;;;;;;4921999;28;20400;-68
2022/12/03 07:13:51;;;;;;;5.15;3.08;;;19.30;54.60;;;;;;4940918;28;20628;-65
2022/12/03 07:16:16;;;;;;;4.20;3.42;;;19.30;54.50;;;;;;4940213;28;20459;-65
2022/12/03 07:18:42;;;;;;;7.97;3.20;;;19.30;54.60;;;;;;4938570;28;20411;-64
2022/12/03 07:21:07;;;;;;;6.82;2.67;;;19.30;54.60;;;;;;4936524;28;20035;-71
2022/12/03 07:23:33;;;;;;;4.28;2.75;;;19.30;54.60;;;;;;4937911;28;20058;-69
2022/12/03 07:25:59;;;;;;;4.20;3.08;;;19.30;54.60;;;;;;4942409;28;20047;-70
2022/12/03 07:28:24;;;;;;;6.25;2.83;;;19.30;54.60;;;;;;4942819;28;20035;-72
2022/12/03 07:30:50;;;;;;;4.10;3.00;;;19.40;54.60;;;;;;4943579;28;20700;-68
2022/12/03 07:33:15;;;;;;;3.65;3.00;;;19.40;54.60;;;;;;4949887;28;20054;-65
2022/12/03 07:35:41;;;;;;;6.10;2.85;;;19.40;54.60;;;;;;4949684;28;20074;-65
2022/12/03 07:38:06;;;;;;;4.90;3.35;;;19.40;54.60;;;;;;4947368;28;20054;-72
2022/12/03 07:40:32;;;;;;;4.47;3.05;;;19.40;54.60;;;;;;4936716;28;20047;-71
2022/12/03 07:42:57;;;;;;;4.45;3.03;;;19.40;55.30;;;;;;4947019;28;20051;-71
2022/12/03 07:45:23;;;;;;;3.75;3.13;;;19.30;54.50;;;;;;4930077;28;20047;-73
2022/12/03 07:47:48;;;;;;;6.50;2.80;;;19.30;54.50;;;;;;4949997;28;20035;-73
2022/12/03 07:50:14;;;;;;;3.55;2.78;;;19.40;54.70;;;;;;4938097;28;20055;-67
2022/12/03 07:52:41;;;;;;;5.05;3.10;;;19.30;54.60;;;;;;4948820;28;20051;-69
2022/12/03 07:55:07;;;;;;;7.00;3.17;;;19.30;54.60;;;;;;4948805;28;20051;-69
2022/12/03 07:57:32;;;;;;;7.97;3.20;;;19.30;54.60;;;;;;4948879;28;20051;-68
2022/12/03 07:59:58;;;;;;;5.70;3.20;;;19.20;54.60;;;;;;4941465;28;20043;-66
2022/12/03 08:02:23;;;;;;;5.43;3.40;;;19.20;54.70;;;;;;4946372;28;20078;-69
2022/12/03 08:04:49;;;;;;;7.65;3.40;;;19.20;54.80;;;;;;4928898;29;20127;-70
2022/12/03 08:07:14;;;;;;;4.22;3.00;;;19.20;54.80;;;;;;4922144;28;20085;-71
2022/12/03 08:09:42;;;;;;;5.00;2.67;;;19.20;54.80;;;;;;4925203;29;20035;-71
2022/12/03 08:12:16;;;;;;;6.93;2.80;;;19.20;55.00;;;;;;4942035;28;20074;-68
2022/12/03 08:14:42;;;;;;;6.28;3.42;;;19.20;55.00;;;;;;4940247;28;20083;-66
2022/12/03 08:17:13;;;;;;;5.05;3.15;;;19.20;55.00;;;;;;4940195;28;20094;-66
2022/12/03 08:19:44;;;;;;;4.03;2.95;;;19.20;55.10;;;;;;4924960;29;20039;-71
2022/12/03 08:22:14;;;;;;;5.50;3.28;;;19.20;55.20;;;;;;4939866;28;20043;-69
2022/12/03 08:24:41;;;;;;;4.90;2.97;;;19.20;55.20;;;;;;4939951;28;20059;-70
2022/12/03 08:27:17;;;;;;;7.10;3.35;;;19.20;55.20;;;;;;4942521;28;20043;-71
2022/12/03 08:29:43;;;;;;;4.43;2.85;;;19.20;55.10;;;;;;4926033;28;20055;-67
2022/12/03 08:32:12;;;;;;;4.80;3.53;;;19.20;55.20;;;;;;4922801;29;20039;-67
2022/12/03 08:34:40;;;;;;;5.97;3.40;;;19.20;55.30;;;;;;4948726;28;20078;-69
2022/12/03 08:37:14;;;;;;;5.28;3.03;;;19.20;55.30;;;;;;4937947;28;20050;-74
2022/12/03 08:39:48;;;;;;;6.80;3.45;;;19.20;55.40;;;;;;4939310;28;20050;-73
2022/12/03 08:42:41;;;;;;;6.63;3.38;;;19.20;55.30;;;;;;4907236;28;20051;-76
2022/12/03 08:45:28;;;;;;;5.05;2.90;;;19.20;55.30;;;;;;4946539;28;20522;-71
2022/12/03 08:48:24;;;;;;;5.38;3.20;;;19.20;55.30;;;;;;4939811;28;20507;-71
2022/12/03 08:50:51;;;;;;;4.40;3.00;;;19.20;55.40;;;;;;4912209;28;20075;-75
2022/12/03 08:53:32;;;;;;;6.15;3.10;;;19.20;55.40;;;;;;4941142;28;20036;-68
2022/12/03 08:56:03;;;;;;;5.63;3.50;;;19.30;55.40;;;;;;4923054;29;20039;-76
2022/12/03 08:58:36;;;;;;;5.85;3.40;;;19.30;55.40;;;;;;4940860;28;20043;-76
2022/12/03 09:01:11;;;;;;;5.93;3.40;;;19.30;55.40;;;;;;4949226;28;20043;-73
2022/12/03 09:03:49;;;;;;;8.90;3.28;;;19.30;55.40;;;;;;4920044;28;20328;-69
2022/12/03 09:06:15;;;;;;;;;;;19.30;55.40;;;;;;4941638;28;20039;-73
2022/12/03 09:08:41;;;;;;;4.82;3.40;;;19.30;55.40;;;;;;4925047;28;19978;-71
2022/12/03 09:11:06;;;;;;;5.78;3.55;;;19.30;55.40;;;;;;4946385;28;20055;-69
2022/12/03 09:13:32;;;;;;;5.07;3.30;;;19.30;55.40;;;;;;4944575;28;20032;-71
2022/12/03 09:15:57;;;;;;;5.25;3.20;;;19.30;55.40;;;;;;4938952;28;20527;-67
2022/12/03 09:18:23;;;;;;;7.57;3.33;;;19.30;55.50;;;;;;4940450;28;20040;-65
2022/12/03 09:20:49;;;;;;;5.22;3.47;;;19.30;55.50;;;;;;4942659;28;20070;-66
2022/12/03 09:23:14;;;;;;;6.32;3.38;;;19.30;55.50;;;;;;4938917;28;20383;-66
2022/12/03 09:25:40;;;;;;;4.97;3.20;;;19.40;55.60;;;;;;4922514;29;20043;-69
2022/12/03 09:28:05;;;;;;;4.70;4.05;;;19.40;55.60;;;;;;4939934;28;20146;-66
2022/12/03 09:30:31;;;;;;;7.30;3.67;;;19.40;55.50;;;;;;4941477;28;20039;-66
2022/12/03 09:32:56;;;;;;;8.00;3.63;;;19.40;55.50;;;;;;4948011;29;20552;-67
2022/12/03 09:35:22;;;;;;;9.15;3.60;;;19.40;55.50;;;;;;4945877;28;20550;-65
2022/12/03 09:37:48;;;;;;;5.15;3.42;;;19.40;55.50;;;;;;4949262;28;20047;-64
2022/12/03 09:40:14;;;;;;;8.82;3.50;;;19.40;55.50;;;;;;4938934;28;20048;-64
2022/12/03 09:42:40;;;;;;;6.13;3.90;;;19.40;55.50;;;;;;4923315;28;20499;-67
2022/12/03 09:45:13;;;;;;;4.80;3.10;;;19.40;55.60;;;;;;4938504;28;20036;-66
2022/12/03 09:47:42;;;;;;;5.75;3.92;;;19.40;55.50;;;;;;4936840;28;20095;-64
2022/12/03 09:50:12;;;;;;;7.57;3.95;;;19.40;55.40;;;;;;4926909;28;20539;-64
2022/12/03 09:52:38;;;;;;;5.93;3.72;;;19.40;55.30;;;;;;4939153;28;20039;-67
2022/12/03 09:55:12;;;;;;;11.38;4.00;;;19.40;55.30;;;;;;4938748;28;20058;-69
2022/12/03 09:57:38;;;;;;;7.55;3.85;;;19.30;55.20;;;;;;4945446;28;20581;-70
2022/12/03 10:00:17;;;;;;;10.15;3.88;;;19.30;55.20;;;;;;4927269;28;20095;-66
2022/12/03 10:02:45;;;;;;;7.65;4.07;;;19.30;55.10;;;;;;4937040;28;20078;-65
2022/12/03 10:05:11;;;;;;;9.23;4.32;;;19.30;55.10;;;;;;4941818;28;20170;-66
2022/12/03 10:07:36;;;;;;;7.47;3.90;;;19.30;55.30;;;;;;4946890;28;20122;-62
2022/12/03 10:10:02;;;;;;;10.95;4.40;;;19.30;55.30;;;;;;4939523;28;20751;-64
2022/12/03 10:12:28;;;;;;;12.15;4.55;;;19.40;55.40;;;;;;4932739;28;20051;-74
2022/12/03 10:14:54;;;;;;;8.82;4.03;;;19.40;55.50;;;;;;4935687;28;21090;-69
2022/12/03 10:17:20;;;;;;;10.60;4.38;;;19.40;55.60;;;;;;4936695;29;20046;-67
2022/12/03 10:19:45;;;;;;;9.55;4.07;;;19.40;55.60;;;;;;4936683;28;20041;-67
2022/12/03 10:22:11;;;;;;;8.15;4.10;;;19.40;55.70;;;;;;4935286;28;20051;-65
2022/12/03 10:24:40;;;;;;;7.18;3.97;;;19.40;55.80;;;;;;4936925;28;20039;-65
2022/12/03 10:27:23;;;;;;;7.97;3.88;;;19.40;55.50;;;;;;4936343;28;20050;-66
2022/12/03 10:29:57;;;;;;;8.45;4.38;;;19.40;55.90;;;;;;4933957;28;20172;-68
2022/12/03 10:32:44;;;;;;;7.47;4.07;;;19.40;55.90;;;;;;4936699;28;20691;-73
2022/12/03 10:35:17;;;;;;;9.40;4.10;;;19.40;56.00;;;;;;4939389;28;20051;-69
2022/12/03 10:38:02;;;;;;;6.25;4.50;;;19.50;56.00;;;;;;4931556;28;20558;-70
2022/12/03 10:40:33;;;;;;;8.15;3.97;;;19.50;56.00;;;;;;4921739;29;20507;-76
2022/12/03 10:43:16;;;;;;;6.15;3.83;;;19.50;55.90;;;;;;4936740;28;20046;-73
2022/12/03 10:45:44;;;;;;;13.95;4.15;;;19.50;56.00;;;;;;4921998;29;20149;-76
2022/12/03 10:48:20;;;;;;;8.13;4.10;;;19.50;55.90;;;;;;4935388;28;20054;-71
2022/12/03 10:50:54;;;;;;;7.00;4.40;;;19.50;55.80;;;;;;4929929;28;20066;-72
2022/12/03 10:53:28;;;;;;;6.35;4.15;;;19.50;55.80;;;;;;4937479;28;20490;-75
2022/12/03 10:55:58;;;;;;;9.63;4.45;;;19.60;55.70;;;;;;4934748;28;20090;-70
2022/12/03 10:58:26;;;;;;;8.75;4.78;;;19.50;55.70;;;;;;4938233;28;20066;-63
2022/12/03 11:00:54;;;;;;;9.43;4.25;;;19.50;55.70;;;;;;4944498;28;20491;-70
2022/12/03 11:03:26;;;;;;;5.63;3.95;;;19.50;55.60;;;;;;4940512;28;20571;-71
2022/12/03 11:05:53;;;;;;;8.80;4.95;;;19.50;55.50;;;;;;4940402;28;20825;-70
2022/12/03 11:08:40;;;;;;;8.30;4.73;;;19.50;55.60;;;;;;4947004;28;20032;-67
2022/12/03 11:11:15;;;;;;;5.32;3.78;;;19.50;55.60;;;;;;4937822;28;20055;-71
2022/12/03 11:13:43;;;;;;;11.00;4.22;;;19.50;55.60;;;;;;4949052;28;20102;-68
2022/12/03 11:16:09;;;;;;;6.55;4.15;;;19.50;55.70;;;;;;4924730;28;20039;-66
2022/12/03 11:18:37;;;;;;;7.85;4.63;;;19.50;55.80;;;;;;4941108;28;20074;-71
2022/12/03 11:21:11;;;;;;;6.13;4.10;;;19.50;55.90;;;;;;4940498;28;20058;-71
2022/12/03 11:23:45;;;;;;;6.35;3.97;;;19.50;55.90;;;;;;4940419;28;20039;-67
2022/12/03 11:26:12;;;;;;;10.27;4.53;;;19.50;55.90;;;;;;4940238;28;20046;-75
2022/12/03 11:28:44;;;;;;;7.68;4.65;;;19.50;55.90;;;;;;4941217;28;20043;-63
2022/12/03 11:31:36;;;;;;;11.13;4.68;;;19.50;56.00;;;;;;4938306;28;20066;-72
2022/12/03 11:34:19;;;;;;;8.02;4.40;;;19.50;56.00;;;;;;4941267;28;20043;-67
2022/12/03 11:37:10;;;;;;;8.43;4.95;;;19.50;56.10;;;;;;4941695;28;20126;-72
2022/12/03 11:39:51;;;;;;;6.53;4.45;;;19.50;56.20;;;;;;4923216;29;20047;-65
2022/12/03 11:42:25;;;;;;;10.30;4.75;;;19.60;56.30;;;;;;4939456;28;20504;-66
2022/12/03 11:45:02;;;;;;;5.43;4.40;;;19.60;56.30;;;;;;4942745;28;20131;-64
2022/12/03 11:47:37;;;;;;;9.93;4.50;;;19.60;56.20;;;;;;4922014;29;20043;-65
2022/12/03 11:50:20;;;;;;;9.55;5.03;;;19.60;56.10;;;;;;4923648;28;20059;-67
2022/12/03 11:53:08;;;;;;;10.60;5.13;;;19.50;55.90;;;;;;4923530;29;20051;-73
2022/12/03 11:55:37;;;;;;;14.45;5.35;;;19.50;55.80;;;;;;4914602;29;20047;-74
2022/12/03 11:58:12;;;;;;;11.18;5.47;;;19.50;55.70;;;;;;4936081;28;20263;-71
2022/12/03 12:00:37;;;;;;;7.45;5.30;;;19.50;55.70;;;;;;4939856;28;20043;-70
2022/12/03 12:03:03;;;;;;;9.93;5.30;;;19.50;55.60;;;;;;4941079;28;20058;-63
2022/12/03 12:05:31;;;;;;;14.10;5.40;;;19.50;55.50;;;;;;4939811;28;20399;-71
2022/12/03 12:08:01;;;;;;;9.20;5.55;;;19.50;55.50;;;;;;4938894;28;20187;-78
2022/12/03 12:10:41;;;;;;;10.07;5.63;;;19.50;55.40;;;;;;4941798;28;20130;-73
2022/12/03 12:13:27;;;;;;;10.23;5.32;;;19.50;55.40;;;;;;4936474;28;20063;-70
2022/12/03 12:15:53;;;;;;;8.73;5.43;;;19.50;55.50;;;;;;4940805;28;20788;-63
2022/12/03 12:18:47;;;;;;;10.63;5.63;;;19.50;55.50;;;;;;4938602;28;20491;-73
2022/12/03 12:21:42;;;;;;;9.13;5.30;;;19.50;55.50;;;;;;4938389;28;20142;-69
2022/12/03 12:24:26;;;;;;;8.45;5.25;;;19.50;55.60;;;;;;4938874;28;20057;-65
2022/12/03 12:26:52;;;;;;;11.43;5.00;;;19.50;55.60;;;;;;4939173;28;20080;-65
2022/12/03 12:29:17;;;;;;;9.07;5.55;;;19.50;55.70;;;;;;4941111;28;20047;-65
2022/12/03 12:31:43;;;;;;;14.23;5.57;;;19.50;55.80;;;;;;4924470;29;20047;-63
2022/12/03 12:34:12;;;;;;;11.88;5.70;;;19.50;56.10;;;;;;4941330;28;20054;-63
2022/12/03 12:36:38;;;;;;;8.27;5.15;;;19.50;56.50;;;;;;4922515;29;20047;-63
2022/12/03 12:39:12;;;;;;;9.05;5.70;;;19.50;57.40;;;;;;4940436;28;20118;-63
2022/12/03 12:41:41;;;;;;;6.53;4.95;;;19.50;58.70;;;;;;4941804;28;20043;-64
2022/12/03 12:44:12;;;;;;;8.13;5.35;;;19.50;58.90;;;;;;4936756;28;20051;-65
2022/12/03 12:46:39;;;;;;;9.75;5.80;;;19.50;59.40;;;;;;4937445;28;20060;-69
2022/12/03 12:49:10;;;;;;;7.93;5.40;;;19.50;59.60;;;;;;4938192;28;20533;-63
2022/12/03 12:51:42;;;;;;;13.52;5.32;;;19.50;60.00;;;;;;4926607;28;20123;-64
2022/12/03 12:54:13;;;;;;;8.77;5.82;;;19.50;60.30;;;;;;4937247;28;20519;-63
2022/12/03 12:56:41;;;;;;;12.27;6.28;;;19.50;61.10;;;;;;4936892;28;20142;-63
2022/12/03 12:59:13;;;;;;;13.23;5.60;;;19.50;61.20;;;;;;4939474;28;20221;-65
2022/12/03 13:01:39;;;;;;;10.73;6.15;;;19.50;61.20;;;;;;4936794;28;20511;-67
2022/12/03 13:04:17;;;;;;;13.23;5.82;;;19.50;61.20;;;;;;4935595;28;20879;-65
2022/12/03 13:06:45;;;;;;;11.40;5.45;;;19.50;61.50;;;;;;4936601;28;20066;-64
2022/12/03 13:09:18;;;;;;;10.07;5.60;;;19.50;61.40;;;;;;4938054;28;20081;-61
2022/12/03 13:11:45;;;;;;;11.95;6.20;;;19.50;61.60;;;;;;4937687;28;20155;-64